sensor_id;sensor_type;location;lat;lon;timestamp;P1;durP1;ratioP1;P2;durP2;ratioP2
6852;SDS011;3465;42.144;24.722;2023-03-24T00:00:08;36.93;;;19.43;;
6852;SDS011;3465;42.144;24.722;2023-03-24T00:02:36;33.27;;;19.07;;
6852;SDS011;3465;42.144;24.722;2023-03-24T00:05:05;34.93;;;18.97;;
6852;SDS011;3465;42.144;24.722;2023-03-24T00:07:32;32.93;;;19.00;;
6852;SDS011;3465;42.144;24.722;2023-03-24T00:09:58;32.47;;;18.83;;
6852;SDS011;3465;42.144;24.722;2023-03-24T00:12:23;33.77;;;18.43;;
6852;SDS011;3465;42.144;24.722;2023-03-24T00:14:49;33.00;;;19.00;;
6852;SDS011;3465;42.144;24.722;2023-03-24T00:17:18;33.07;;;17.70;;
6852;SDS011;3465;42.144;24.722;2023-03-24T00:19:44;34.37;;;19.20;;
6852;SDS011;3465;42.144;24.722;2023-03-24T00:22:10;35.53;;;19.50;;
6852;SDS011;3465;42.144;24.722;2023-03-24T00:24:40;33.20;;;19.07;;
6852;SDS011;3465;42.144;24.722;2023-03-24T00:27:06;36.50;;;19.93;;
6852;SDS011;3465;42.144;24.722;2023-03-24T00:29:32;35.00;;;19.43;;
6852;SDS011;3465;42.144;24.722;2023-03-24T00:31:58;36.93;;;19.87;;
6852;SDS011;3465;42.144;24.722;2023-03-24T00:34:23;33.77;;;19.40;;
6852;SDS011;3465;42.144;24.722;2023-03-24T00:36:49;39.23;;;19.80;;
6852;SDS011;3465;42.144;24.722;2023-03-24T00:39:19;34.07;;;19.00;;
6852;SDS011;3465;42.144;24.722;2023-03-24T00:41:45;36.20;;;20.17;;
6852;SDS011;3465;42.144;24.722;2023-03-24T00:44:12;35.17;;;19.40;;
6852;SDS011;3465;42.144;24.722;2023-03-24T00:46:44;35.37;;;20.83;;
6852;SDS011;3465;42.144;24.722;2023-03-24T00:49:19;36.93;;;20.53;;
6852;SDS011;3465;42.144;24.722;2023-03-24T00:51:49;33.60;;;19.63;;
6852;SDS011;3465;42.144;24.722;2023-03-24T00:54:15;36.47;;;19.90;;
6852;SDS011;3465;42.144;24.722;2023-03-24T00:56:45;39.73;;;20.33;;
6852;SDS011;3465;42.144;24.722;2023-03-24T00:59:13;34.23;;;19.23;;
6852;SDS011;3465;42.144;24.722;2023-03-24T01:01:39;35.10;;;19.67;;
6852;SDS011;3465;42.144;24.722;2023-03-24T01:04:05;31.53;;;18.67;;
6852;SDS011;3465;42.144;24.722;2023-03-24T01:06:31;32.90;;;19.47;;
6852;SDS011;3465;42.144;24.722;2023-03-24T01:08:57;35.03;;;19.87;;
6852;SDS011;3465;42.144;24.722;2023-03-24T01:11:24;36.20;;;19.57;;
6852;SDS011;3465;42.144;24.722;2023-03-24T01:13:50;37.60;;;19.80;;
6852;SDS011;3465;42.144;24.722;2023-03-24T01:16:17;37.17;;;20.90;;
6852;SDS011;3465;42.144;24.722;2023-03-24T01:18:43;33.53;;;19.90;;
6852;SDS011;3465;42.144;24.722;2023-03-24T01:21:10;39.93;;;20.73;;
6852;SDS011;3465;42.144;24.722;2023-03-24T01:23:36;39.03;;;21.17;;
6852;SDS011;3465;42.144;24.722;2023-03-24T01:26:04;33.40;;;20.03;;
6852;SDS011;3465;42.144;24.722;2023-03-24T01:28:32;37.10;;;21.10;;
6852;SDS011;3465;42.144;24.722;2023-03-24T01:31:02;36.73;;;20.63;;
6852;SDS011;3465;42.144;24.722;2023-03-24T01:33:27;38.80;;;21.53;;
6852;SDS011;3465;42.144;24.722;2023-03-24T01:35:52;38.53;;;20.77;;
6852;SDS011;3465;42.144;24.722;2023-03-24T01:38:18;38.40;;;21.83;;
6852;SDS011;3465;42.144;24.722;2023-03-24T01:40:44;38.60;;;21.13;;
6852;SDS011;3465;42.144;24.722;2023-03-24T01:43:18;37.33;;;21.07;;
6852;SDS011;3465;42.144;24.722;2023-03-24T01:48:16;35.07;;;21.43;;
6852;SDS011;3465;42.144;24.722;2023-03-24T01:50:57;39.30;;;21.73;;
6852;SDS011;3465;42.144;24.722;2023-03-24T01:53:29;35.83;;;21.80;;
6852;SDS011;3465;42.144;24.722;2023-03-24T01:55:58;38.57;;;22.17;;
6852;SDS011;3465;42.144;24.722;2023-03-24T01:58:26;37.67;;;22.03;;
6852;SDS011;3465;42.144;24.722;2023-03-24T02:00:54;38.63;;;21.60;;
6852;SDS011;3465;42.144;24.722;2023-03-24T02:03:21;38.97;;;22.27;;
6852;SDS011;3465;42.144;24.722;2023-03-24T02:05:49;39.07;;;21.80;;
6852;SDS011;3465;42.144;24.722;2023-03-24T02:10:57;36.67;;;21.43;;
6852;SDS011;3465;42.144;24.722;2023-03-24T02:13:25;41.50;;;21.90;;
6852;SDS011;3465;42.144;24.722;2023-03-24T02:15:55;42.90;;;23.73;;
6852;SDS011;3465;42.144;24.722;2023-03-24T02:24:15;34.77;;;19.80;;
6852;SDS011;3465;42.144;24.722;2023-03-24T02:39:42;35.57;;;19.80;;
6852;SDS011;3465;42.144;24.722;2023-03-24T02:50:13;31.97;;;18.57;;
6852;SDS011;3465;42.144;24.722;2023-03-24T02:52:48;32.03;;;19.17;;
6852;SDS011;3465;42.144;24.722;2023-03-24T02:55:22;32.77;;;18.43;;
6852;SDS011;3465;42.144;24.722;2023-03-24T02:58:02;33.70;;;18.00;;
6852;SDS011;3465;42.144;24.722;2023-03-24T03:00:34;29.57;;;16.80;;
6852;SDS011;3465;42.144;24.722;2023-03-24T03:03:08;30.93;;;17.07;;
6852;SDS011;3465;42.144;24.722;2023-03-24T03:05:39;25.97;;;15.77;;
6852;SDS011;3465;42.144;24.722;2023-03-24T03:08:08;30.50;;;15.50;;
6852;SDS011;3465;42.144;24.722;2023-03-24T03:10:38;30.80;;;15.87;;
6852;SDS011;3465;42.144;24.722;2023-03-24T03:13:11;26.00;;;15.20;;
6852;SDS011;3465;42.144;24.722;2023-03-24T03:16:03;29.63;;;16.10;;
6852;SDS011;3465;42.144;24.722;2023-03-24T03:18:40;27.37;;;14.87;;
6852;SDS011;3465;42.144;24.722;2023-03-24T03:21:14;27.43;;;15.77;;
6852;SDS011;3465;42.144;24.722;2023-03-24T03:23:48;25.47;;;15.60;;
6852;SDS011;3465;42.144;24.722;2023-03-24T03:26:23;26.10;;;15.73;;
6852;SDS011;3465;42.144;24.722;2023-03-24T03:28:55;24.67;;;15.13;;
6852;SDS011;3465;42.144;24.722;2023-03-24T03:31:26;28.40;;;16.40;;
6852;SDS011;3465;42.144;24.722;2023-03-24T03:34:01;24.63;;;14.07;;
6852;SDS011;3465;42.144;24.722;2023-03-24T03:39:37;24.77;;;14.37;;
6852;SDS011;3465;42.144;24.722;2023-03-24T03:42:09;30.00;;;14.63;;
6852;SDS011;3465;42.144;24.722;2023-03-24T03:44:35;26.33;;;15.00;;
6852;SDS011;3465;42.144;24.722;2023-03-24T03:47:00;28.37;;;14.83;;
6852;SDS011;3465;42.144;24.722;2023-03-24T03:49:26;26.47;;;15.50;;
6852;SDS011;3465;42.144;24.722;2023-03-24T03:51:52;26.87;;;15.10;;
6852;SDS011;3465;42.144;24.722;2023-03-24T03:54:19;28.43;;;16.50;;
6852;SDS011;3465;42.144;24.722;2023-03-24T03:56:47;28.83;;;15.70;;
6852;SDS011;3465;42.144;24.722;2023-03-24T03:59:25;27.63;;;15.40;;
6852;SDS011;3465;42.144;24.722;2023-03-24T04:02:27;25.63;;;15.47;;
6852;SDS011;3465;42.144;24.722;2023-03-24T04:14:02;28.37;;;15.33;;
6852;SDS011;3465;42.144;24.722;2023-03-24T04:27:37;25.40;;;13.83;;
6852;SDS011;3465;42.144;24.722;2023-03-24T04:30:15;22.27;;;13.43;;
6852;SDS011;3465;42.144;24.722;2023-03-24T04:35:45;25.57;;;14.77;;
6852;SDS011;3465;42.144;24.722;2023-03-24T04:38:19;28.70;;;15.40;;
6852;SDS011;3465;42.144;24.722;2023-03-24T04:40:50;27.40;;;15.73;;
6852;SDS011;3465;42.144;24.722;2023-03-24T04:43:19;31.00;;;16.43;;
6852;SDS011;3465;42.144;24.722;2023-03-24T04:45:50;30.40;;;15.83;;
6852;SDS011;3465;42.144;24.722;2023-03-24T04:48:17;26.33;;;15.80;;
6852;SDS011;3465;42.144;24.722;2023-03-24T04:50:47;29.23;;;16.43;;
6852;SDS011;3465;42.144;24.722;2023-03-24T04:53:18;30.53;;;16.50;;
6852;SDS011;3465;42.144;24.722;2023-03-24T04:58:42;28.60;;;17.37;;
6852;SDS011;3465;42.144;24.722;2023-03-24T05:01:07;33.30;;;18.00;;
6852;SDS011;3465;42.144;24.722;2023-03-24T05:03:33;34.13;;;17.90;;
6852;SDS011;3465;42.144;24.722;2023-03-24T05:06:01;26.83;;;16.20;;
6852;SDS011;3465;42.144;24.722;2023-03-24T05:08:30;27.47;;;14.83;;
6852;SDS011;3465;42.144;24.722;2023-03-24T05:10:56;25.63;;;14.43;;
6852;SDS011;3465;42.144;24.722;2023-03-24T05:13:22;24.00;;;15.27;;
6852;SDS011;3465;42.144;24.722;2023-03-24T05:15:47;25.13;;;14.00;;
6852;SDS011;3465;42.144;24.722;2023-03-24T05:18:12;25.63;;;14.10;;
6852;SDS011;3465;42.144;24.722;2023-03-24T05:20:38;21.60;;;13.93;;
6852;SDS011;3465;42.144;24.722;2023-03-24T05:23:03;27.33;;;13.63;;
6852;SDS011;3465;42.144;24.722;2023-03-24T05:25:29;25.90;;;14.87;;
6852;SDS011;3465;42.144;24.722;2023-03-24T05:27:54;24.80;;;12.83;;
6852;SDS011;3465;42.144;24.722;2023-03-24T05:30:20;20.90;;;12.00;;
6852;SDS011;3465;42.144;24.722;2023-03-24T05:32:45;21.40;;;12.00;;
6852;SDS011;3465;42.144;24.722;2023-03-24T05:35:11;16.50;;;11.00;;
6852;SDS011;3465;42.144;24.722;2023-03-24T05:37:36;15.97;;;10.87;;
6852;SDS011;3465;42.144;24.722;2023-03-24T05:40:02;19.17;;;10.53;;
6852;SDS011;3465;42.144;24.722;2023-03-24T05:42:28;17.10;;;10.50;;
6852;SDS011;3465;42.144;24.722;2023-03-24T05:44:53;19.40;;;10.80;;
6852;SDS011;3465;42.144;24.722;2023-03-24T05:47:18;13.75;;;9.57;;
6852;SDS011;3465;42.144;24.722;2023-03-24T05:49:47;14.50;;;9.45;;
6852;SDS011;3465;42.144;24.722;2023-03-24T05:52:14;19.50;;;9.80;;
6852;SDS011;3465;42.144;24.722;2023-03-24T05:54:40;13.68;;;9.50;;
6852;SDS011;3465;42.144;24.722;2023-03-24T05:57:07;17.83;;;10.43;;
6852;SDS011;3465;42.144;24.722;2023-03-24T05:59:37;13.48;;;9.93;;
6852;SDS011;3465;42.144;24.722;2023-03-24T06:02:02;14.63;;;9.50;;
6852;SDS011;3465;42.144;24.722;2023-03-24T06:04:28;19.00;;;10.73;;
6852;SDS011;3465;42.144;24.722;2023-03-24T06:06:55;21.45;;;9.57;;
6852;SDS011;3465;42.144;24.722;2023-03-24T06:09:23;16.33;;;9.32;;
6852;SDS011;3465;42.144;24.722;2023-03-24T06:12:03;12.32;;;9.32;;
6852;SDS011;3465;42.144;24.722;2023-03-24T06:14:29;17.65;;;9.70;;
6852;SDS011;3465;42.144;24.722;2023-03-24T06:16:54;14.52;;;9.02;;
6852;SDS011;3465;42.144;24.722;2023-03-24T06:19:23;16.55;;;9.00;;
6852;SDS011;3465;42.144;24.722;2023-03-24T06:21:50;14.32;;;9.20;;
6852;SDS011;3465;42.144;24.722;2023-03-24T06:24:15;22.35;;;9.85;;
6852;SDS011;3465;42.144;24.722;2023-03-24T06:26:41;13.43;;;9.65;;
6852;SDS011;3465;42.144;24.722;2023-03-24T06:29:08;15.95;;;9.38;;
6852;SDS011;3465;42.144;24.722;2023-03-24T06:31:34;15.48;;;9.35;;
6852;SDS011;3465;42.144;24.722;2023-03-24T06:34:01;18.27;;;10.07;;
6852;SDS011;3465;42.144;24.722;2023-03-24T06:36:30;13.48;;;9.43;;
6852;SDS011;3465;42.144;24.722;2023-03-24T06:38:58;14.10;;;9.00;;
6852;SDS011;3465;42.144;24.722;2023-03-24T06:41:24;13.73;;;9.25;;
6852;SDS011;3465;42.144;24.722;2023-03-24T06:43:50;14.70;;;9.15;;
6852;SDS011;3465;42.144;24.722;2023-03-24T06:46:15;16.65;;;9.30;;
6852;SDS011;3465;42.144;24.722;2023-03-24T06:48:41;17.45;;;9.40;;
6852;SDS011;3465;42.144;24.722;2023-03-24T06:51:06;14.88;;;9.73;;
6852;SDS011;3465;42.144;24.722;2023-03-24T06:53:31;14.23;;;8.88;;
6852;SDS011;3465;42.144;24.722;2023-03-24T06:55:57;15.73;;;9.95;;
6852;SDS011;3465;42.144;24.722;2023-03-24T06:58:22;16.02;;;9.77;;
6852;SDS011;3465;42.144;24.722;2023-03-24T07:00:53;12.63;;;8.82;;
6852;SDS011;3465;42.144;24.722;2023-03-24T07:03:21;21.55;;;9.20;;
6852;SDS011;3465;42.144;24.722;2023-03-24T07:05:47;19.83;;;9.05;;
6852;SDS011;3465;42.144;24.722;2023-03-24T07:08:12;11.75;;;7.53;;
6852;SDS011;3465;42.144;24.722;2023-03-24T07:10:38;12.35;;;8.32;;
6852;SDS011;3465;42.144;24.722;2023-03-24T07:13:04;14.38;;;8.57;;
6852;SDS011;3465;42.144;24.722;2023-03-24T07:15:31;14.40;;;8.60;;
6852;SDS011;3465;42.144;24.722;2023-03-24T07:17:56;17.55;;;8.57;;
6852;SDS011;3465;42.144;24.722;2023-03-24T07:20:22;12.82;;;8.65;;
6852;SDS011;3465;42.144;24.722;2023-03-24T07:22:47;12.52;;;8.93;;
6852;SDS011;3465;42.144;24.722;2023-03-24T07:25:13;14.05;;;8.70;;
6852;SDS011;3465;42.144;24.722;2023-03-24T07:27:39;10.55;;;7.15;;
6852;SDS011;3465;42.144;24.722;2023-03-24T07:30:05;11.98;;;7.47;;
6852;SDS011;3465;42.144;24.722;2023-03-24T07:32:31;11.48;;;7.97;;
6852;SDS011;3465;42.144;24.722;2023-03-24T07:35:06;10.60;;;7.55;;
6852;SDS011;3465;42.144;24.722;2023-03-24T07:37:36;10.95;;;8.25;;
6852;SDS011;3465;42.144;24.722;2023-03-24T07:40:02;11.43;;;7.85;;
6852;SDS011;3465;42.144;24.722;2023-03-24T07:42:35;15.23;;;8.85;;
6852;SDS011;3465;42.144;24.722;2023-03-24T07:45:02;12.15;;;8.23;;
6852;SDS011;3465;42.144;24.722;2023-03-24T07:47:29;16.75;;;8.82;;
6852;SDS011;3465;42.144;24.722;2023-03-24T07:49:55;19.20;;;8.30;;
6852;SDS011;3465;42.144;24.722;2023-03-24T07:52:21;15.40;;;7.93;;
6852;SDS011;3465;42.144;24.722;2023-03-24T07:54:46;16.63;;;8.00;;
6852;SDS011;3465;42.144;24.722;2023-03-24T07:57:12;21.65;;;8.32;;
6852;SDS011;3465;42.144;24.722;2023-03-24T07:59:37;16.58;;;8.07;;
6852;SDS011;3465;42.144;24.722;2023-03-24T08:02:02;15.73;;;8.88;;
6852;SDS011;3465;42.144;24.722;2023-03-24T08:04:28;15.18;;;9.30;;
6852;SDS011;3465;42.144;24.722;2023-03-24T08:06:53;13.07;;;9.25;;
6852;SDS011;3465;42.144;24.722;2023-03-24T08:09:19;14.57;;;9.00;;
6852;SDS011;3465;42.144;24.722;2023-03-24T08:11:48;14.27;;;8.60;;
6852;SDS011;3465;42.144;24.722;2023-03-24T08:14:13;16.52;;;9.50;;
6852;SDS011;3465;42.144;24.722;2023-03-24T08:16:38;17.45;;;9.27;;
6852;SDS011;3465;42.144;24.722;2023-03-24T08:19:04;15.60;;;9.63;;
6852;SDS011;3465;42.144;24.722;2023-03-24T08:21:30;15.10;;;9.35;;
6852;SDS011;3465;42.144;24.722;2023-03-24T08:23:55;16.60;;;9.63;;
6852;SDS011;3465;42.144;24.722;2023-03-24T08:26:21;14.77;;;9.32;;
6852;SDS011;3465;42.144;24.722;2023-03-24T08:28:51;17.02;;;9.15;;
6852;SDS011;3465;42.144;24.722;2023-03-24T08:31:17;15.60;;;9.15;;
6852;SDS011;3465;42.144;24.722;2023-03-24T08:33:42;14.70;;;9.43;;
6852;SDS011;3465;42.144;24.722;2023-03-24T08:36:08;19.58;;;11.23;;
6852;SDS011;3465;42.144;24.722;2023-03-24T08:38:33;17.42;;;11.25;;
6852;SDS011;3465;42.144;24.722;2023-03-24T08:41:03;18.63;;;11.02;;
6852;SDS011;3465;42.144;24.722;2023-03-24T08:43:31;15.93;;;10.70;;
6852;SDS011;3465;42.144;24.722;2023-03-24T08:45:57;19.52;;;11.18;;
6852;SDS011;3465;42.144;24.722;2023-03-24T08:48:24;18.95;;;10.77;;
6852;SDS011;3465;42.144;24.722;2023-03-24T08:50:51;24.50;;;10.30;;
6852;SDS011;3465;42.144;24.722;2023-03-24T08:53:17;22.88;;;11.75;;
6852;SDS011;3465;42.144;24.722;2023-03-24T08:55:42;19.88;;;11.30;;
6852;SDS011;3465;42.144;24.722;2023-03-24T08:58:16;23.08;;;11.43;;
6852;SDS011;3465;42.144;24.722;2023-03-24T09:00:44;23.15;;;10.43;;
6852;SDS011;3465;42.144;24.722;2023-03-24T09:03:14;15.63;;;11.07;;
6852;SDS011;3465;42.144;24.722;2023-03-24T09:05:46;14.63;;;10.38;;
6852;SDS011;3465;42.144;24.722;2023-03-24T09:08:12;17.45;;;11.65;;
6852;SDS011;3465;42.144;24.722;2023-03-24T09:10:40;18.25;;;11.57;;
6852;SDS011;3465;42.144;24.722;2023-03-24T09:13:06;24.33;;;11.40;;
6852;SDS011;3465;42.144;24.722;2023-03-24T09:15:32;19.02;;;10.75;;
6852;SDS011;3465;42.144;24.722;2023-03-24T09:17:58;19.80;;;11.25;;
6852;SDS011;3465;42.144;24.722;2023-03-24T09:20:24;15.63;;;10.57;;
6852;SDS011;3465;42.144;24.722;2023-03-24T09:22:49;21.33;;;10.45;;
6852;SDS011;3465;42.144;24.722;2023-03-24T09:25:16;18.48;;;10.07;;
6852;SDS011;3465;42.144;24.722;2023-03-24T09:27:43;18.58;;;10.55;;
6852;SDS011;3465;42.144;24.722;2023-03-24T09:30:09;16.30;;;10.35;;
6852;SDS011;3465;42.144;24.722;2023-03-24T09:32:36;21.23;;;10.15;;
6852;SDS011;3465;42.144;24.722;2023-03-24T09:35:02;17.80;;;10.02;;
6852;SDS011;3465;42.144;24.722;2023-03-24T09:37:30;15.00;;;9.85;;
6852;SDS011;3465;42.144;24.722;2023-03-24T09:39:56;13.60;;;8.50;;
6852;SDS011;3465;42.144;24.722;2023-03-24T09:42:24;14.50;;;9.00;;
6852;SDS011;3465;42.144;24.722;2023-03-24T09:44:53;12.95;;;9.48;;
6852;SDS011;3465;42.144;24.722;2023-03-24T09:47:28;10.90;;;8.82;;
6852;SDS011;3465;42.144;24.722;2023-03-24T09:50:03;12.63;;;8.63;;
6852;SDS011;3465;42.144;24.722;2023-03-24T09:52:34;19.17;;;8.82;;
6852;SDS011;3465;42.144;24.722;2023-03-24T09:55:04;10.65;;;7.70;;
6852;SDS011;3465;42.144;24.722;2023-03-24T09:57:37;11.05;;;7.93;;
6852;SDS011;3465;42.144;24.722;2023-03-24T10:00:08;9.80;;;7.63;;
6852;SDS011;3465;42.144;24.722;2023-03-24T10:02:34;12.10;;;7.70;;
6852;SDS011;3465;42.144;24.722;2023-03-24T10:05:00;10.20;;;7.00;;
6852;SDS011;3465;42.144;24.722;2023-03-24T10:07:33;15.75;;;7.57;;
6852;SDS011;3465;42.144;24.722;2023-03-24T10:10:58;13.18;;;7.78;;
6852;SDS011;3465;42.144;24.722;2023-03-24T10:13:08;12.07;;;7.20;;
6852;SDS011;3465;42.144;24.722;2023-03-24T10:16:05;14.38;;;9.32;;
6852;SDS011;3465;42.144;24.722;2023-03-24T10:18:42;14.45;;;8.98;;
6852;SDS011;3465;42.144;24.722;2023-03-24T10:21:27;16.65;;;9.32;;
6852;SDS011;3465;42.144;24.722;2023-03-24T10:24:05;14.10;;;9.38;;
6852;SDS011;3465;42.144;24.722;2023-03-24T10:29:21;17.50;;;8.85;;
6852;SDS011;3465;42.144;24.722;2023-03-24T10:32:24;13.98;;;8.70;;
6852;SDS011;3465;42.144;24.722;2023-03-24T10:34:45;17.30;;;8.63;;
6852;SDS011;3465;42.144;24.722;2023-03-24T10:37:15;11.48;;;8.25;;
6852;SDS011;3465;42.144;24.722;2023-03-24T10:39:41;13.25;;;7.80;;
6852;SDS011;3465;42.144;24.722;2023-03-24T10:42:09;11.68;;;7.47;;
6852;SDS011;3465;42.144;24.722;2023-03-24T10:44:40;12.88;;;7.60;;
6852;SDS011;3465;42.144;24.722;2023-03-24T10:47:08;12.82;;;7.57;;
6852;SDS011;3465;42.144;24.722;2023-03-24T10:49:37;10.27;;;7.60;;
6852;SDS011;3465;42.144;24.722;2023-03-24T10:52:15;11.57;;;7.38;;
6852;SDS011;3465;42.144;24.722;2023-03-24T10:54:44;10.50;;;7.38;;
6852;SDS011;3465;42.144;24.722;2023-03-24T10:57:27;10.75;;;7.47;;
6852;SDS011;3465;42.144;24.722;2023-03-24T10:59:59;12.45;;;7.50;;
6852;SDS011;3465;42.144;24.722;2023-03-24T11:02:41;12.40;;;7.20;;
6852;SDS011;3465;42.144;24.722;2023-03-24T11:07:40;8.25;;;6.72;;
6852;SDS011;3465;42.144;24.722;2023-03-24T11:12:38;10.00;;;7.00;;
6852;SDS011;3465;42.144;24.722;2023-03-24T11:17:55;7.82;;;6.07;;
6852;SDS011;3465;42.144;24.722;2023-03-24T11:20:30;9.00;;;6.35;;
6852;SDS011;3465;42.144;24.722;2023-03-24T11:23:00;8.65;;;7.28;;
6852;SDS011;3465;42.144;24.722;2023-03-24T11:25:36;9.82;;;7.13;;
6852;SDS011;3465;42.144;24.722;2023-03-24T11:28:07;8.40;;;6.28;;
6852;SDS011;3465;42.144;24.722;2023-03-24T11:30:45;9.88;;;6.57;;
6852;SDS011;3465;42.144;24.722;2023-03-24T11:33:25;10.63;;;7.15;;
6852;SDS011;3465;42.144;24.722;2023-03-24T11:35:53;9.95;;;6.90;;
6852;SDS011;3465;42.144;24.722;2023-03-24T11:38:26;10.35;;;6.70;;
6852;SDS011;3465;42.144;24.722;2023-03-24T11:41:00;10.20;;;7.47;;
6852;SDS011;3465;42.144;24.722;2023-03-24T11:43:28;10.13;;;6.60;;
6852;SDS011;3465;42.144;24.722;2023-03-24T11:45:57;8.05;;;6.22;;
6852;SDS011;3465;42.144;24.722;2023-03-24T11:48:41;11.55;;;7.05;;
6852;SDS011;3465;42.144;24.722;2023-03-24T11:51:16;9.55;;;6.95;;
6852;SDS011;3465;42.144;24.722;2023-03-24T11:53:50;10.25;;;6.50;;
6852;SDS011;3465;42.144;24.722;2023-03-24T12:05:12;9.85;;;6.43;;
6852;SDS011;3465;42.144;24.722;2023-03-24T12:07:50;9.68;;;6.30;;
6852;SDS011;3465;42.144;24.722;2023-03-24T12:13:35;7.80;;;6.00;;
6852;SDS011;3465;42.144;24.722;2023-03-24T12:23:56;7.70;;;6.00;;
6852;SDS011;3465;42.144;24.722;2023-03-24T12:26:27;7.65;;;5.80;;
6852;SDS011;3465;42.144;24.722;2023-03-24T12:36:50;10.32;;;5.75;;
6852;SDS011;3465;42.144;24.722;2023-03-24T12:42:38;8.23;;;4.93;;
6852;SDS011;3465;42.144;24.722;2023-03-24T12:51:15;7.53;;;4.28;;
6852;SDS011;3465;42.144;24.722;2023-03-24T12:56:42;6.18;;;4.30;;
6852;SDS011;3465;42.144;24.722;2023-03-24T12:59:35;5.43;;;4.32;;
6852;SDS011;3465;42.144;24.722;2023-03-24T13:05:40;6.75;;;4.60;;
6852;SDS011;3465;42.144;24.722;2023-03-24T13:07:49;5.85;;;4.60;;
6852;SDS011;3465;42.144;24.722;2023-03-24T13:10:22;6.35;;;4.57;;
6852;SDS011;3465;42.144;24.722;2023-03-24T13:13:01;8.13;;;4.70;;
6852;SDS011;3465;42.144;24.722;2023-03-24T13:15:48;4.88;;;3.97;;
6852;SDS011;3465;42.144;24.722;2023-03-24T13:31:29;4.82;;;3.80;;
6852;SDS011;3465;42.144;24.722;2023-03-24T13:34:00;5.03;;;3.60;;
6852;SDS011;3465;42.144;24.722;2023-03-24T13:36:39;9.10;;;4.15;;
6852;SDS011;3465;42.144;24.722;2023-03-24T13:39:19;5.93;;;3.28;;
6852;SDS011;3465;42.144;24.722;2023-03-24T13:41:49;5.88;;;3.90;;
6852;SDS011;3465;42.144;24.722;2023-03-24T13:44:18;7.22;;;3.90;;
6852;SDS011;3465;42.144;24.722;2023-03-24T13:46:59;5.53;;;3.72;;
6852;SDS011;3465;42.144;24.722;2023-03-24T13:49:34;4.55;;;3.72;;
6852;SDS011;3465;42.144;24.722;2023-03-24T13:52:01;5.28;;;3.83;;
6852;SDS011;3465;42.144;24.722;2023-03-24T13:54:28;5.68;;;3.92;;
6852;SDS011;3465;42.144;24.722;2023-03-24T13:57:02;4.88;;;3.53;;
6852;SDS011;3465;42.144;24.722;2023-03-24T13:59:56;7.15;;;3.95;;
6852;SDS011;3465;42.144;24.722;2023-03-24T14:17:55;7.63;;;4.15;;
6852;SDS011;3465;42.144;24.722;2023-03-24T14:20:38;5.35;;;3.92;;
6852;SDS011;3465;42.144;24.722;2023-03-24T14:23:42;7.53;;;4.20;;
6852;SDS011;3465;42.144;24.722;2023-03-24T14:26:14;8.32;;;4.40;;
6852;SDS011;3465;42.144;24.722;2023-03-24T14:28:54;7.18;;;3.92;;
6852;SDS011;3465;42.144;24.722;2023-03-24T14:36:16;6.28;;;4.32;;
6852;SDS011;3465;42.144;24.722;2023-03-24T14:39:08;5.80;;;3.65;;
6852;SDS011;3465;42.144;24.722;2023-03-24T14:41:53;5.57;;;3.83;;
6852;SDS011;3465;42.144;24.722;2023-03-24T14:47:09;4.95;;;3.22;;
6852;SDS011;3465;42.144;24.722;2023-03-24T14:49:40;4.05;;;3.35;;
6852;SDS011;3465;42.144;24.722;2023-03-24T14:52:11;3.78;;;3.35;;
6852;SDS011;3465;42.144;24.722;2023-03-24T14:54:53;5.80;;;3.53;;
6852;SDS011;3465;42.144;24.722;2023-03-24T14:57:24;4.68;;;3.33;;
6852;SDS011;3465;42.144;24.722;2023-03-24T15:02:48;5.05;;;3.55;;
6852;SDS011;3465;42.144;24.722;2023-03-24T15:08:01;4.28;;;3.38;;
6852;SDS011;3465;42.144;24.722;2023-03-24T15:10:36;4.80;;;3.45;;
6852;SDS011;3465;42.144;24.722;2023-03-24T15:15:52;5.95;;;3.65;;
6852;SDS011;3465;42.144;24.722;2023-03-24T15:18:18;4.47;;;3.10;;
6852;SDS011;3465;42.144;24.722;2023-03-24T15:20:46;4.53;;;3.13;;
6852;SDS011;3465;42.144;24.722;2023-03-24T15:23:16;4.25;;;3.13;;
6852;SDS011;3465;42.144;24.722;2023-03-24T15:25:44;4.07;;;3.03;;
6852;SDS011;3465;42.144;24.722;2023-03-24T15:30:46;6.70;;;3.30;;
6852;SDS011;3465;42.144;24.722;2023-03-24T15:33:13;4.35;;;3.20;;
6852;SDS011;3465;42.144;24.722;2023-03-24T15:35:38;6.47;;;3.30;;
6852;SDS011;3465;42.144;24.722;2023-03-24T15:38:04;5.75;;;3.45;;
6852;SDS011;3465;42.144;24.722;2023-03-24T15:40:31;5.05;;;3.40;;
6852;SDS011;3465;42.144;24.722;2023-03-24T15:43:02;6.38;;;3.63;;
6852;SDS011;3465;42.144;24.722;2023-03-24T15:48:11;5.55;;;3.47;;
6852;SDS011;3465;42.144;24.722;2023-03-24T15:50:40;7.38;;;3.80;;
6852;SDS011;3465;42.144;24.722;2023-03-24T15:55:43;6.13;;;3.40;;
6852;SDS011;3465;42.144;24.722;2023-03-24T15:58:22;4.78;;;3.35;;
6852;SDS011;3465;42.144;24.722;2023-03-24T16:00:51;5.10;;;3.10;;
6852;SDS011;3465;42.144;24.722;2023-03-24T16:03:18;4.70;;;3.25;;
6852;SDS011;3465;42.144;24.722;2023-03-24T16:05:50;6.45;;;3.35;;
6852;SDS011;3465;42.144;24.722;2023-03-24T16:11:08;6.93;;;3.58;;
6852;SDS011;3465;42.144;24.722;2023-03-24T16:13:36;6.00;;;3.45;;
6852;SDS011;3465;42.144;24.722;2023-03-24T16:18:39;5.10;;;2.70;;
6852;SDS011;3465;42.144;24.722;2023-03-24T16:21:12;3.77;;;2.70;;
6852;SDS011;3465;42.144;24.722;2023-03-24T16:23:38;6.63;;;3.10;;
6852;SDS011;3465;42.144;24.722;2023-03-24T16:26:04;4.43;;;2.80;;
6852;SDS011;3465;42.144;24.722;2023-03-24T16:28:30;6.18;;;4.05;;
6852;SDS011;3465;42.144;24.722;2023-03-24T16:30:57;5.05;;;3.17;;
6852;SDS011;3465;42.144;24.722;2023-03-24T16:33:26;4.32;;;2.85;;
6852;SDS011;3465;42.144;24.722;2023-03-24T16:35:51;4.50;;;3.10;;
6852;SDS011;3465;42.144;24.722;2023-03-24T16:38:17;5.70;;;3.13;;
6852;SDS011;3465;42.144;24.722;2023-03-24T16:40:44;5.73;;;3.13;;
6852;SDS011;3465;42.144;24.722;2023-03-24T16:43:12;5.50;;;3.33;;
6852;SDS011;3465;42.144;24.722;2023-03-24T16:45:37;5.10;;;3.47;;
6852;SDS011;3465;42.144;24.722;2023-03-24T16:48:02;5.00;;;3.28;;
6852;SDS011;3465;42.144;24.722;2023-03-24T16:50:32;5.90;;;3.78;;
6852;SDS011;3465;42.144;24.722;2023-03-24T16:53:00;6.95;;;3.47;;
6852;SDS011;3465;42.144;24.722;2023-03-24T16:55:28;6.55;;;3.20;;
6852;SDS011;3465;42.144;24.722;2023-03-24T16:57:54;7.03;;;3.60;;
6852;SDS011;3465;42.144;24.722;2023-03-24T17:00:20;8.40;;;3.50;;
6852;SDS011;3465;42.144;24.722;2023-03-24T17:02:46;5.47;;;3.40;;
6852;SDS011;3465;42.144;24.722;2023-03-24T17:05:23;6.20;;;3.23;;
6852;SDS011;3465;42.144;24.722;2023-03-24T17:07:53;7.32;;;3.33;;
6852;SDS011;3465;42.144;24.722;2023-03-24T17:10:20;8.23;;;3.90;;
6852;SDS011;3465;42.144;24.722;2023-03-24T17:12:47;6.00;;;3.77;;
6852;SDS011;3465;42.144;24.722;2023-03-24T17:15:24;5.53;;;3.73;;
6852;SDS011;3465;42.144;24.722;2023-03-24T17:17:51;6.90;;;3.93;;
6852;SDS011;3465;42.144;24.722;2023-03-24T17:20:17;6.40;;;4.37;;
6852;SDS011;3465;42.144;24.722;2023-03-24T17:22:44;4.63;;;3.37;;
6852;SDS011;3465;42.144;24.722;2023-03-24T17:25:11;6.80;;;3.60;;
6852;SDS011;3465;42.144;24.722;2023-03-24T17:27:38;7.90;;;3.33;;
6852;SDS011;3465;42.144;24.722;2023-03-24T17:30:04;7.47;;;4.10;;
6852;SDS011;3465;42.144;24.722;2023-03-24T17:32:31;7.17;;;3.70;;
6852;SDS011;3465;42.144;24.722;2023-03-24T17:34:57;9.47;;;4.63;;
6852;SDS011;3465;42.144;24.722;2023-03-24T17:37:24;6.20;;;4.20;;
6852;SDS011;3465;42.144;24.722;2023-03-24T17:39:52;13.33;;;4.50;;
6852;SDS011;3465;42.144;24.722;2023-03-24T17:42:19;7.60;;;4.37;;
6852;SDS011;3465;42.144;24.722;2023-03-24T17:44:45;10.70;;;4.70;;
6852;SDS011;3465;42.144;24.722;2023-03-24T17:47:10;7.37;;;4.33;;
6852;SDS011;3465;42.144;24.722;2023-03-24T17:49:36;9.17;;;4.37;;
6852;SDS011;3465;42.144;24.722;2023-03-24T17:52:01;9.57;;;4.77;;